sensor_id;sensor_type;location;lat;lon;timestamp;P1;durP1;ratioP1;P2;durP2;ratioP2
64018;SDS011;66942;52.138;5.216;2023-02-03T00:01:10;15.1;;;5.11;;
64018;SDS011;66942;52.138;5.216;2023-02-03T00:04:22;13.0;;;4.41;;
64018;SDS011;66942;52.138;5.216;2023-02-03T00:05:59;12.6;;;4.7;;
64018;SDS011;66942;52.138;5.216;2023-02-03T00:07:36;11.5;;;4.7;;
64018;SDS011;66942;52.138;5.216;2023-02-03T00:10:50;14.0;;;5.11;;
64018;SDS011;66942;52.138;5.216;2023-02-03T00:12:26;14.0;;;5.4;;
64018;SDS011;66942;52.138;5.216;2023-02-03T00:14:04;13.8;;;5.0;;
64018;SDS011;66942;52.138;5.216;2023-02-03T00:15:40;12.3;;;4.8;;
64018;SDS011;66942;52.138;5.216;2023-02-03T00:18:54;12.6;;;4.91;;
64018;SDS011;66942;52.138;5.216;2023-02-03T00:20:30;14.9;;;4.91;;
64018;SDS011;66942;52.138;5.216;2023-02-03T00:22:07;14.9;;;4.91;;
64018;SDS011;66942;52.138;5.216;2023-02-03T00:25:20;13.9;;;5.3;;
64018;SDS011;66942;52.138;5.216;2023-02-03T00:26:57;11.3;;;4.8;;
64018;SDS011;66942;52.138;5.216;2023-02-03T00:28:33;12.6;;;4.7;;
64018;SDS011;66942;52.138;5.216;2023-02-03T00:31:47;12.8;;;4.7;;
64018;SDS011;66942;52.138;5.216;2023-02-03T00:33:23;11.4;;;4.2;;
64018;SDS011;66942;52.138;5.216;2023-02-03T00:35:00;11.4;;;4.8;;
64018;SDS011;66942;52.138;5.216;2023-02-03T00:36:37;13.8;;;4.8;;
64018;SDS011;66942;52.138;5.216;2023-02-03T00:39:49;16.0;;;4.91;;
64018;SDS011;66942;52.138;5.216;2023-02-03T00:41:27;13.4;;;4.41;;
64018;SDS011;66942;52.138;5.216;2023-02-03T00:43:04;13.2;;;4.8;;
64018;SDS011;66942;52.138;5.216;2023-02-03T00:46:17;11.5;;;4.5;;
64018;SDS011;66942;52.138;5.216;2023-02-03T00:47:53;12.4;;;4.2;;
64018;SDS011;66942;52.138;5.216;2023-02-03T00:49:29;12.2;;;5.11;;
64018;SDS011;66942;52.138;5.216;2023-02-03T00:52:42;14.0;;;5.0;;
64018;SDS011;66942;52.138;5.216;2023-02-03T00:54:19;12.3;;;4.61;;
64018;SDS011;66942;52.138;5.216;2023-02-03T00:55:56;11.9;;;4.61;;
64018;SDS011;66942;52.138;5.216;2023-02-03T00:57:32;13.5;;;5.11;;
64018;SDS011;66942;52.138;5.216;2023-02-03T01:00:44;19.7;;;4.91;;
64018;SDS011;66942;52.138;5.216;2023-02-03T01:02:20;13.8;;;4.91;;
64018;SDS011;66942;52.138;5.216;2023-02-03T01:03:58;11.7;;;4.8;;
64018;SDS011;66942;52.138;5.216;2023-02-03T01:07:12;11.5;;;4.3;;
64018;SDS011;66942;52.138;5.216;2023-02-03T01:08:48;12.3;;;4.5;;
64018;SDS011;66942;52.138;5.216;2023-02-03T01:10:25;11.4;;;4.61;;
64018;SDS011;66942;52.138;5.216;2023-02-03T01:13:38;13.8;;;5.11;;
64018;SDS011;66942;52.138;5.216;2023-02-03T01:15:15;11.9;;;4.3;;
64018;SDS011;66942;52.138;5.216;2023-02-03T01:16:52;11.6;;;5.11;;
64018;SDS011;66942;52.138;5.216;2023-02-03T01:18:28;13.0;;;4.61;;
64018;SDS011;66942;52.138;5.216;2023-02-03T01:21:41;12.4;;;4.7;;
64018;SDS011;66942;52.138;5.216;2023-02-03T01:23:18;15.5;;;5.11;;
64018;SDS011;66942;52.138;5.216;2023-02-03T01:24:54;10.21;;;4.2;;
64018;SDS011;66942;52.138;5.216;2023-02-03T01:28:07;12.0;;;4.5;;
64018;SDS011;66942;52.138;5.216;2023-02-03T01:29:43;9.4;;;3.8;;
64018;SDS011;66942;52.138;5.216;2023-02-03T01:31:20;15.3;;;4.7;;
64018;SDS011;66942;52.138;5.216;2023-02-03T01:34:34;9.6;;;4.41;;
64018;SDS011;66942;52.138;5.216;2023-02-03T01:36:11;10.3;;;3.8;;
64018;SDS011;66942;52.138;5.216;2023-02-03T01:37:48;12.0;;;4.0;;
64018;SDS011;66942;52.138;5.216;2023-02-03T01:39:25;8.9;;;3.4;;
64018;SDS011;66942;52.138;5.216;2023-02-03T01:42:39;9.6;;;4.0;;
64018;SDS011;66942;52.138;5.216;2023-02-03T01:44:48;9.81;;;4.1;;
64018;SDS011;66942;52.138;5.216;2023-02-03T01:46:27;12.8;;;4.2;;
64018;SDS011;66942;52.138;5.216;2023-02-03T01:48:08;11.5;;;4.3;;
64018;SDS011;66942;52.138;5.216;2023-02-03T01:49:45;10.5;;;4.2;;
64018;SDS011;66942;52.138;5.216;2023-02-03T01:53:05;10.7;;;4.3;;
64018;SDS011;66942;52.138;5.216;2023-02-03T01:54:46;11.5;;;4.3;;
64018;SDS011;66942;52.138;5.216;2023-02-03T01:56:26;11.7;;;4.1;;
64018;SDS011;66942;52.138;5.216;2023-02-03T01:58:07;10.6;;;4.1;;
64018;SDS011;66942;52.138;5.216;2023-02-03T02:01:32;13.3;;;4.0;;
64018;SDS011;66942;52.138;5.216;2023-02-03T02:03:10;11.3;;;4.0;;
64018;SDS011;66942;52.138;5.216;2023-02-03T02:04:49;10.7;;;4.3;;
64018;SDS011;66942;52.138;5.216;2023-02-03T02:06:31;14.0;;;4.2;;
64018;SDS011;66942;52.138;5.216;2023-02-03T02:09:46;9.81;;;3.6;;
64018;SDS011;66942;52.138;5.216;2023-02-03T02:11:23;11.9;;;4.2;;
64018;SDS011;66942;52.138;5.216;2023-02-03T02:12:59;9.1;;;3.4;;
64018;SDS011;66942;52.138;5.216;2023-02-03T02:16:20;10.6;;;4.0;;
64018;SDS011;66942;52.138;5.216;2023-02-03T02:18:08;9.9;;;3.6;;
64018;SDS011;66942;52.138;5.216;2023-02-03T02:21:11;9.21;;;3.4;;
64018;SDS011;66942;52.138;5.216;2023-02-03T02:23:04;10.6;;;3.8;;
64018;SDS011;66942;52.138;5.216;2023-02-03T02:25:08;9.0;;;3.6;;
64018;SDS011;66942;52.138;5.216;2023-02-03T02:27:59;9.6;;;3.5;;
64018;SDS011;66942;52.138;5.216;2023-02-03T02:30:42;8.6;;;3.2;;
64018;SDS011;66942;52.138;5.216;2023-02-03T02:32:53;8.1;;;3.3;;
64018;SDS011;66942;52.138;5.216;2023-02-03T02:34:41;8.0;;;3.0;;
64018;SDS011;66942;52.138;5.216;2023-02-03T02:36:26;8.81;;;3.1;;
64018;SDS011;66942;52.138;5.216;2023-02-03T02:38:11;8.1;;;3.2;;
64018;SDS011;66942;52.138;5.216;2023-02-03T02:39:57;7.1;;;2.8;;
64018;SDS011;66942;52.138;5.216;2023-02-03T02:43:28;6.7;;;2.6;;
64018;SDS011;66942;52.138;5.216;2023-02-03T02:45:15;8.1;;;2.6;;
64018;SDS011;66942;52.138;5.216;2023-02-03T02:46:59;7.6;;;3.0;;
64018;SDS011;66942;52.138;5.216;2023-02-03T02:48:42;8.31;;;2.8;;
64018;SDS011;66942;52.138;5.216;2023-02-03T02:50:24;6.4;;;2.5;;
64018;SDS011;66942;52.138;5.216;2023-02-03T02:53:48;5.8;;;2.6;;
64018;SDS011;66942;52.138;5.216;2023-02-03T02:55:33;6.9;;;2.7;;
64018;SDS011;66942;52.138;5.216;2023-02-03T02:57:14;6.1;;;2.1;;
64018;SDS011;66942;52.138;5.216;2023-02-03T02:58:54;5.4;;;2.21;;
64018;SDS011;66942;52.138;5.216;2023-02-03T03:02:11;5.0;;;2.1;;
64018;SDS011;66942;52.138;5.216;2023-02-03T03:03:48;5.6;;;2.21;;
64018;SDS011;66942;52.138;5.216;2023-02-03T03:05:26;5.3;;;2.6;;
64018;SDS011;66942;52.138;5.216;2023-02-03T03:08:46;6.6;;;2.1;;
64018;SDS011;66942;52.138;5.216;2023-02-03T03:10:28;6.9;;;2.31;;
64018;SDS011;66942;52.138;5.216;2023-02-03T03:12:09;6.4;;;2.21;;
64018;SDS011;66942;52.138;5.216;2023-02-03T03:13:50;5.6;;;2.21;;
64018;SDS011;66942;52.138;5.216;2023-02-03T03:15:30;5.4;;;2.0;;
64018;SDS011;66942;52.138;5.216;2023-02-03T03:18:54;6.5;;;2.4;;
64018;SDS011;66942;52.138;5.216;2023-02-03T03:20:33;7.2;;;2.8;;
64018;SDS011;66942;52.138;5.216;2023-02-03T03:22:13;6.6;;;2.4;;
64018;SDS011;66942;52.138;5.216;2023-02-03T03:23:53;8.6;;;2.8;;
64018;SDS011;66942;52.138;5.216;2023-02-03T03:27:17;6.1;;;2.0;;
64018;SDS011;66942;52.138;5.216;2023-02-03T03:29:00;5.6;;;2.31;;
64018;SDS011;66942;52.138;5.216;2023-02-03T03:30:45;7.7;;;2.6;;
64018;SDS011;66942;52.138;5.216;2023-02-03T03:32:21;5.3;;;2.4;;
64018;SDS011;66942;52.138;5.216;2023-02-03T03:35:36;5.3;;;2.4;;
64018;SDS011;66942;52.138;5.216;2023-02-03T03:37:21;6.7;;;2.7;;
64018;SDS011;66942;52.138;5.216;2023-02-03T03:39:06;6.5;;;2.21;;
64018;SDS011;66942;52.138;5.216;2023-02-03T03:40:51;5.0;;;2.21;;
64018;SDS011;66942;52.138;5.216;2023-02-03T03:44:19;6.3;;;2.21;;
64018;SDS011;66942;52.138;5.216;2023-02-03T03:46:01;5.7;;;2.0;;
64018;SDS011;66942;52.138;5.216;2023-02-03T03:47:46;7.1;;;2.5;;
64018;SDS011;66942;52.138;5.216;2023-02-03T03:49:28;4.3;;;2.1;;
64018;SDS011;66942;52.138;5.216;2023-02-03T03:51:09;5.0;;;2.0;;
64018;SDS011;66942;52.138;5.216;2023-02-03T03:54:31;5.0;;;2.21;;
64018;SDS011;66942;52.138;5.216;2023-02-03T03:56:10;6.0;;;2.4;;
64018;SDS011;66942;52.138;5.216;2023-02-03T03:57:55;7.6;;;2.7;;
64018;SDS011;66942;52.138;5.216;2023-02-03T03:59:37;6.9;;;2.4;;
64018;SDS011;66942;52.138;5.216;2023-02-03T04:02:57;6.1;;;2.21;;
64018;SDS011;66942;52.138;5.216;2023-02-03T04:04:39;4.91;;;2.0;;
64018;SDS011;66942;52.138;5.216;2023-02-03T04:06:17;5.7;;;2.5;;
64018;SDS011;66942;52.138;5.216;2023-02-03T04:07:53;7.4;;;2.6;;
64018;SDS011;66942;52.138;5.216;2023-02-03T04:11:06;6.2;;;2.5;;
64018;SDS011;66942;52.138;5.216;2023-02-03T04:12:43;4.5;;;2.31;;
64018;SDS011;66942;52.138;5.216;2023-02-03T04:14:19;4.1;;;1.8;;
64018;SDS011;66942;52.138;5.216;2023-02-03T04:17:35;7.2;;;2.21;;
64018;SDS011;66942;52.138;5.216;2023-02-03T04:19:11;6.6;;;2.4;;
64018;SDS011;66942;52.138;5.216;2023-02-03T04:20:47;4.5;;;1.7;;
64018;SDS011;66942;52.138;5.216;2023-02-03T04:23:59;6.0;;;2.21;;
64018;SDS011;66942;52.138;5.216;2023-02-03T04:25:36;6.4;;;2.1;;
64018;SDS011;66942;52.138;5.216;2023-02-03T04:27:12;5.2;;;2.31;;
64018;SDS011;66942;52.138;5.216;2023-02-03T04:28:48;6.7;;;2.21;;
64018;SDS011;66942;52.138;5.216;2023-02-03T04:32:02;7.8;;;2.4;;
64018;SDS011;66942;52.138;5.216;2023-02-03T04:33:38;5.7;;;2.21;;
64018;SDS011;66942;52.138;5.216;2023-02-03T04:35:15;7.6;;;2.21;;
64018;SDS011;66942;52.138;5.216;2023-02-03T04:38:27;7.5;;;2.6;;
64018;SDS011;66942;52.138;5.216;2023-02-03T04:40:04;6.3;;;2.0;;
64018;SDS011;66942;52.138;5.216;2023-02-03T04:41:42;6.8;;;2.5;;
64018;SDS011;66942;52.138;5.216;2023-02-03T04:44:54;8.5;;;2.5;;
64018;SDS011;66942;52.138;5.216;2023-02-03T04:46:30;6.6;;;2.31;;
64018;SDS011;66942;52.138;5.216;2023-02-03T04:48:06;8.4;;;2.5;;
64018;SDS011;66942;52.138;5.216;2023-02-03T04:49:42;8.31;;;2.7;;
64018;SDS011;66942;52.138;5.216;2023-02-03T04:52:57;5.5;;;2.21;;
64018;SDS011;66942;52.138;5.216;2023-02-03T04:54:34;8.1;;;3.0;;
64018;SDS011;66942;52.138;5.216;2023-02-03T04:56:11;9.21;;;2.6;;
64018;SDS011;66942;52.138;5.216;2023-02-03T04:59:30;6.1;;;2.31;;
64018;SDS011;66942;52.138;5.216;2023-02-03T05:01:08;6.3;;;2.4;;
64018;SDS011;66942;52.138;5.216;2023-02-03T05:02:45;9.0;;;2.7;;
64018;SDS011;66942;52.138;5.216;2023-02-03T05:04:21;8.5;;;2.7;;
64018;SDS011;66942;52.138;5.216;2023-02-03T05:07:33;7.9;;;3.1;;
64018;SDS011;66942;52.138;5.216;2023-02-03T05:09:09;7.3;;;2.5;;
64018;SDS011;66942;52.138;5.216;2023-02-03T05:10:45;9.81;;;2.5;;
64018;SDS011;66942;52.138;5.216;2023-02-03T05:13:58;9.0;;;3.0;;
64018;SDS011;66942;52.138;5.216;2023-02-03T05:15:34;6.9;;;2.7;;
64018;SDS011;66942;52.138;5.216;2023-02-03T05:17:10;11.7;;;3.2;;
64018;SDS011;66942;52.138;5.216;2023-02-03T05:20:22;8.1;;;3.0;;
64018;SDS011;66942;52.138;5.216;2023-02-03T05:21:58;9.4;;;2.6;;
64018;SDS011;66942;52.138;5.216;2023-02-03T05:23:35;8.1;;;2.6;;
64018;SDS011;66942;52.138;5.216;2023-02-03T05:25:11;7.8;;;2.8;;
64018;SDS011;66942;52.138;5.216;2023-02-03T05:28:25;8.2;;;3.1;;
64018;SDS011;66942;52.138;5.216;2023-02-03T05:30:01;8.81;;;2.4;;
64018;SDS011;66942;52.138;5.216;2023-02-03T05:31:38;7.0;;;3.1;;
64018;SDS011;66942;52.138;5.216;2023-02-03T05:34:52;10.1;;;3.0;;
64018;SDS011;66942;52.138;5.216;2023-02-03T05:36:28;8.71;;;3.0;;
64018;SDS011;66942;52.138;5.216;2023-02-03T05:38:04;6.9;;;2.4;;
64018;SDS011;66942;52.138;5.216;2023-02-03T05:42:22;9.6;;;3.1;;
64018;SDS011;66942;52.138;5.216;2023-02-03T05:43:58;9.0;;;2.9;;
64018;SDS011;66942;52.138;5.216;2023-02-03T05:45:35;8.6;;;2.8;;
64018;SDS011;66942;52.138;5.216;2023-02-03T05:47:12;8.6;;;3.0;;
64018;SDS011;66942;52.138;5.216;2023-02-03T05:48:49;9.4;;;3.6;;
64018;SDS011;66942;52.138;5.216;2023-02-03T05:50:26;9.4;;;2.6;;
64018;SDS011;66942;52.138;5.216;2023-02-03T05:53:39;9.1;;;3.3;;
64018;SDS011;66942;52.138;5.216;2023-02-03T05:55:15;10.21;;;3.4;;
64018;SDS011;66942;52.138;5.216;2023-02-03T05:56:52;8.6;;;2.7;;
64018;SDS011;66942;52.138;5.216;2023-02-03T06:00:06;10.9;;;3.2;;
64018;SDS011;66942;52.138;5.216;2023-02-03T06:01:44;8.0;;;3.2;;
64018;SDS011;66942;52.138;5.216;2023-02-03T06:03:20;10.7;;;3.1;;
64018;SDS011;66942;52.138;5.216;2023-02-03T06:04:56;9.0;;;3.0;;
64018;SDS011;66942;52.138;5.216;2023-02-03T06:08:09;10.21;;;3.6;;
64018;SDS011;66942;52.138;5.216;2023-02-03T06:09:46;9.0;;;3.0;;
64018;SDS011;66942;52.138;5.216;2023-02-03T06:11:23;9.0;;;3.5;;
64018;SDS011;66942;52.138;5.216;2023-02-03T06:14:44;9.6;;;3.2;;
64018;SDS011;66942;52.138;5.216;2023-02-03T06:16:21;11.5;;;3.4;;
64018;SDS011;66942;52.138;5.216;2023-02-03T06:17:57;8.9;;;3.2;;
64018;SDS011;66942;52.138;5.216;2023-02-03T06:19:34;6.9;;;3.1;;
64018;SDS011;66942;52.138;5.216;2023-02-03T06:22:46;8.1;;;3.2;;
64018;SDS011;66942;52.138;5.216;2023-02-03T06:24:22;8.5;;;3.5;;
64018;SDS011;66942;52.138;5.216;2023-02-03T06:25:59;10.1;;;3.0;;
64018;SDS011;66942;52.138;5.216;2023-02-03T06:29:13;8.6;;;3.0;;
64018;SDS011;66942;52.138;5.216;2023-02-03T06:30:49;12.5;;;3.4;;
64018;SDS011;66942;52.138;5.216;2023-02-03T06:32:26;9.9;;;3.7;;
64018;SDS011;66942;52.138;5.216;2023-02-03T06:35:39;7.4;;;2.9;;
64018;SDS011;66942;52.138;5.216;2023-02-03T06:37:15;10.21;;;3.3;;
64018;SDS011;66942;52.138;5.216;2023-02-03T06:38:53;9.6;;;3.1;;
64018;SDS011;66942;52.138;5.216;2023-02-03T06:40:30;10.7;;;3.6;;
64018;SDS011;66942;52.138;5.216;2023-02-03T06:43:43;10.4;;;3.2;;
64018;SDS011;66942;52.138;5.216;2023-02-03T06:45:19;11.3;;;3.6;;
64018;SDS011;66942;52.138;5.216;2023-02-03T06:46:55;8.2;;;3.6;;
64018;SDS011;66942;52.138;5.216;2023-02-03T06:50:08;11.9;;;3.6;;
64018;SDS011;66942;52.138;5.216;2023-02-03T06:51:47;10.4;;;3.2;;
64018;SDS011;66942;52.138;5.216;2023-02-03T06:53:23;7.9;;;3.2;;
64018;SDS011;66942;52.138;5.216;2023-02-03T06:56:35;10.4;;;3.5;;
64018;SDS011;66942;52.138;5.216;2023-02-03T06:58:12;9.21;;;3.3;;
64018;SDS011;66942;52.138;5.216;2023-02-03T06:59:49;10.6;;;3.4;;
64018;SDS011;66942;52.138;5.216;2023-02-03T07:01:25;8.9;;;3.1;;
64018;SDS011;66942;52.138;5.216;2023-02-03T07:04:38;11.1;;;3.6;;
64018;SDS011;66942;52.138;5.216;2023-02-03T07:06:14;11.3;;;4.0;;
64018;SDS011;66942;52.138;5.216;2023-02-03T07:07:50;9.5;;;3.7;;
64018;SDS011;66942;52.138;5.216;2023-02-03T07:11:04;10.7;;;3.3;;
64018;SDS011;66942;52.138;5.216;2023-02-03T07:12:41;11.1;;;3.4;;
64018;SDS011;66942;52.138;5.216;2023-02-03T07:14:17;8.1;;;3.3;;
64018;SDS011;66942;52.138;5.216;2023-02-03T07:17:29;9.5;;;3.7;;
64018;SDS011;66942;52.138;5.216;2023-02-03T07:19:06;11.9;;;3.8;;
64018;SDS011;66942;52.138;5.216;2023-02-03T07:20:42;10.21;;;3.4;;
64018;SDS011;66942;52.138;5.216;2023-02-03T07:22:18;9.1;;;3.4;;
64018;SDS011;66942;52.138;5.216;2023-02-03T07:25:31;11.7;;;3.8;;
64018;SDS011;66942;52.138;5.216;2023-02-03T07:27:07;10.0;;;3.6;;
64018;SDS011;66942;52.138;5.216;2023-02-03T07:28:43;9.5;;;3.3;;
64018;SDS011;66942;52.138;5.216;2023-02-03T07:31:56;10.5;;;3.8;;
64018;SDS011;66942;52.138;5.216;2023-02-03T07:33:32;10.1;;;3.8;;
64018;SDS011;66942;52.138;5.216;2023-02-03T07:35:09;10.5;;;3.5;;
64018;SDS011;66942;52.138;5.216;2023-02-03T07:38:22;10.4;;;3.5;;
64018;SDS011;66942;52.138;5.216;2023-02-03T07:39:59;9.81;;;4.1;;
64018;SDS011;66942;52.138;5.216;2023-02-03T07:41:35;10.4;;;3.0;;
64018;SDS011;66942;52.138;5.216;2023-02-03T07:44:47;11.7;;;3.8;;
64018;SDS011;66942;52.138;5.216;2023-02-03T07:46:24;11.8;;;4.2;;
64018;SDS011;66942;52.138;5.216;2023-02-03T07:48:00;12.2;;;3.5;;
64018;SDS011;66942;52.138;5.216;2023-02-03T07:49:36;10.8;;;3.6;;
64018;SDS011;66942;52.138;5.216;2023-02-03T07:52:49;9.6;;;3.5;;
64018;SDS011;66942;52.138;5.216;2023-02-03T07:54:26;11.5;;;3.4;;
64018;SDS011;66942;52.138;5.216;2023-02-03T07:56:03;10.9;;;3.9;;
64018;SDS011;66942;52.138;5.216;2023-02-03T07:59:19;10.1;;;3.8;;
64018;SDS011;66942;52.138;5.216;2023-02-03T08:00:55;9.5;;;3.2;;
64018;SDS011;66942;52.138;5.216;2023-02-03T08:02:32;10.5;;;4.0;;
64018;SDS011;66942;52.138;5.216;2023-02-03T08:04:11;11.7;;;4.0;;
64018;SDS011;66942;52.138;5.216;2023-02-03T08:07:25;10.8;;;3.9;;
64018;SDS011;66942;52.138;5.216;2023-02-03T08:09:01;9.5;;;3.6;;
64018;SDS011;66942;52.138;5.216;2023-02-03T08:10:37;14.3;;;4.5;;
64018;SDS011;66942;52.138;5.216;2023-02-03T08:13:50;11.3;;;4.0;;
64018;SDS011;66942;52.138;5.216;2023-02-03T08:15:26;13.2;;;4.1;;
64018;SDS011;66942;52.138;5.216;2023-02-03T08:17:02;14.4;;;4.1;;
64018;SDS011;66942;52.138;5.216;2023-02-03T08:20:15;11.8;;;3.6;;
64018;SDS011;66942;52.138;5.216;2023-02-03T08:21:52;11.7;;;4.0;;
64018;SDS011;66942;52.138;5.216;2023-02-03T08:23:28;11.9;;;4.2;;
64018;SDS011;66942;52.138;5.216;2023-02-03T08:25:05;11.5;;;3.4;;
64018;SDS011;66942;52.138;5.216;2023-02-03T08:28:18;11.9;;;3.9;;
64018;SDS011;66942;52.138;5.216;2023-02-03T08:29:55;11.9;;;3.7;;
64018;SDS011;66942;52.138;5.216;2023-02-03T08:31:31;10.3;;;3.6;;
64018;SDS011;66942;52.138;5.216;2023-02-03T08:34:43;10.3;;;3.8;;
64018;SDS011;66942;52.138;5.216;2023-02-03T08:36:21;11.7;;;4.2;;
64018;SDS011;66942;52.138;5.216;2023-02-03T08:37:58;13.2;;;4.5;;
64018;SDS011;66942;52.138;5.216;2023-02-03T08:41:12;11.3;;;3.5;;
64018;SDS011;66942;52.138;5.216;2023-02-03T08:42:51;11.0;;;4.1;;
64018;SDS011;66942;52.138;5.216;2023-02-03T08:44:28;11.1;;;4.3;;
64018;SDS011;66942;52.138;5.216;2023-02-03T08:46:06;9.31;;;3.4;;
64018;SDS011;66942;52.138;5.216;2023-02-03T08:49:22;10.3;;;3.7;;
64018;SDS011;66942;52.138;5.216;2023-02-03T08:51:00;10.3;;;3.7;;
64018;SDS011;66942;52.138;5.216;2023-02-03T08:52:37;12.5;;;3.6;;
64018;SDS011;66942;52.138;5.216;2023-02-03T08:55:50;9.31;;;3.5;;
64018;SDS011;66942;52.138;5.216;2023-02-03T08:57:30;8.6;;;3.2;;
64018;SDS011;66942;52.138;5.216;2023-02-03T08:59:08;9.21;;;3.8;;
64018;SDS011;66942;52.138;5.216;2023-02-03T09:00:44;8.2;;;3.3;;
64018;SDS011;66942;52.138;5.216;2023-02-03T09:04:01;12.2;;;4.1;;
64018;SDS011;66942;52.138;5.216;2023-02-03T09:05:37;11.9;;;4.1;;
64018;SDS011;66942;52.138;5.216;2023-02-03T09:07:14;11.6;;;3.9;;
64018;SDS011;66942;52.138;5.216;2023-02-03T09:10:27;13.5;;;4.8;;
64018;SDS011;66942;52.138;5.216;2023-02-03T09:12:04;10.21;;;5.0;;
64018;SDS011;66942;52.138;5.216;2023-02-03T09:13:44;10.3;;;4.5;;
64018;SDS011;66942;52.138;5.216;2023-02-03T09:15:22;12.3;;;5.2;;
64018;SDS011;66942;52.138;5.216;2023-02-03T09:18:35;13.0;;;4.61;;
64018;SDS011;66942;52.138;5.216;2023-02-03T09:20:14;11.1;;;4.2;;
64018;SDS011;66942;52.138;5.216;2023-02-03T09:21:50;10.9;;;3.9;;
64018;SDS011;66942;52.138;5.216;2023-02-03T09:25:03;10.21;;;4.0;;
64018;SDS011;66942;52.138;5.216;2023-02-03T09:26:40;13.5;;;4.3;;
64018;SDS011;66942;52.138;5.216;2023-02-03T09:28:16;13.3;;;4.41;;
64018;SDS011;66942;52.138;5.216;2023-02-03T09:31:29;10.1;;;3.8;;
64018;SDS011;66942;52.138;5.216;2023-02-03T09:33:05;14.4;;;4.41;;
64018;SDS011;66942;52.138;5.216;2023-02-03T09:34:41;14.2;;;4.8;;
64018;SDS011;66942;52.138;5.216;2023-02-03T09:36:17;12.8;;;4.0;;
64018;SDS011;66942;52.138;5.216;2023-02-03T09:39:29;13.4;;;4.1;;
64018;SDS011;66942;52.138;5.216;2023-02-03T09:41:13;10.5;;;3.8;;
64018;SDS011;66942;52.138;5.216;2023-02-03T09:43:09;8.9;;;3.8;;
64018;SDS011;66942;52.138;5.216;2023-02-03T09:45:09;8.31;;;3.8;;
64018;SDS011;66942;52.138;5.216;2023-02-03T09:46:54;9.31;;;3.8;;
64018;SDS011;66942;52.138;5.216;2023-02-03T09:50:17;11.2;;;3.6;;
64018;SDS011;66942;52.138;5.216;2023-02-03T09:51:58;11.0;;;3.9;;
64018;SDS011;66942;52.138;5.216;2023-02-03T09:53:43;11.7;;;3.8;;
64018;SDS011;66942;52.138;5.216;2023-02-03T09:55:26;11.5;;;3.8;;
64018;SDS011;66942;52.138;5.216;2023-02-03T09:57:12;12.6;;;3.6;;
64018;SDS011;66942;52.138;5.216;2023-02-03T10:00:30;10.1;;;3.6;;
64018;SDS011;66942;52.138;5.216;2023-02-03T10:02:15;10.4;;;3.7;;
64018;SDS011;66942;52.138;5.216;2023-02-03T10:04:12;10.4;;;3.7;;
64018;SDS011;66942;52.138;5.216;2023-02-03T10:06:09;12.3;;;3.4;;
64018;SDS011;66942;52.138;5.216;2023-02-03T10:07:54;9.71;;;3.4;;
64018;SDS011;66942;52.138;5.216;2023-02-03T10:11:36;10.3;;;3.5;;
64018;SDS011;66942;52.138;5.216;2023-02-03T10:13:47;11.0;;;3.7;;
64018;SDS011;66942;52.138;5.216;2023-02-03T10:15:39;10.8;;;3.6;;
64018;SDS011;66942;52.138;5.216;2023-02-03T10:17:45;8.31;;;3.3;;
64018;SDS011;66942;52.138;5.216;2023-02-03T10:19:31;8.81;;;3.4;;
64018;SDS011;66942;52.138;5.216;2023-02-03T10:21:23;12.6;;;3.8;;
64018;SDS011;66942;52.138;5.216;2023-02-03T10:23:11;9.4;;;3.3;;
64018;SDS011;66942;52.138;5.216;2023-02-03T10:24:52;8.81;;;3.5;;
64018;SDS011;66942;52.138;5.216;2023-02-03T10:26:35;9.9;;;3.2;;
64018;SDS011;66942;52.138;5.216;2023-02-03T10:29:56;8.2;;;3.0;;
64018;SDS011;66942;52.138;5.216;2023-02-03T10:31:39;9.31;;;3.5;;
64018;SDS011;66942;52.138;5.216;2023-02-03T10:33:17;10.0;;;3.2;;
64018;SDS011;66942;52.138;5.216;2023-02-03T10:34:54;8.6;;;3.3;;
64018;SDS011;66942;52.138;5.216;2023-02-03T10:38:32;9.4;;;3.3;;
64018;SDS011;66942;52.138;5.216;2023-02-03T10:40:20;8.81;;;3.8;;
64018;SDS011;66942;52.138;5.216;2023-02-03T10:42:01;10.4;;;3.7;;
64018;SDS011;66942;52.138;5.216;2023-02-03T10:43:47;9.1;;;3.2;;
64018;SDS011;66942;52.138;5.216;2023-02-03T10:45:25;9.0;;;3.4;;
64018;SDS011;66942;52.138;5.216;2023-02-03T10:48:45;9.1;;;3.3;;
64018;SDS011;66942;52.138;5.216;2023-02-03T10:50:23;11.1;;;3.8;;
64018;SDS011;66942;52.138;5.216;2023-02-03T10:52:03;12.4;;;3.6;;
64018;SDS011;66942;52.138;5.216;2023-02-03T10:53:39;10.3;;;3.7;;
64018;SDS011;66942;52.138;5.216;2023-02-03T10:57:09;11.2;;;3.9;;
64018;SDS011;66942;52.138;5.216;2023-02-03T10:58:52;11.2;;;3.9;;
64018;SDS011;66942;52.138;5.216;2023-02-03T11:00:30;10.21;;;3.8;;
64018;SDS011;66942;52.138;5.216;2023-02-03T11:02:09;10.4;;;4.2;;
64018;SDS011;66942;52.138;5.216;2023-02-03T11:04:04;10.3;;;4.0;;
64018;SDS011;66942;52.138;5.216;2023-02-03T11:07:22;9.31;;;3.3;;
64018;SDS011;66942;52.138;5.216;2023-02-03T11:09:01;11.0;;;3.1;;
64018;SDS011;66942;52.138;5.216;2023-02-03T11:11:00;10.0;;;3.8;;
64018;SDS011;66942;52.138;5.216;2023-02-03T11:12:38;11.7;;;3.9;;
64018;SDS011;66942;52.138;5.216;2023-02-03T11:15:53;11.6;;;3.9;;
64018;SDS011;66942;52.138;5.216;2023-02-03T11:17:34;10.0;;;3.9;;
64018;SDS011;66942;52.138;5.216;2023-02-03T11:19:13;7.9;;;3.7;;
64018;SDS011;66942;52.138;5.216;2023-02-03T11:20:52;9.21;;;3.4;;
64018;SDS011;66942;52.138;5.216;2023-02-03T11:24:12;8.1;;;3.8;;
64018;SDS011;66942;52.138;5.216;2023-02-03T11:25:54;12.9;;;4.1;;
64018;SDS011;66942;52.138;5.216;2023-02-03T11:27:31;11.1;;;3.8;;
64018;SDS011;66942;52.138;5.216;2023-02-03T11:30:54;7.9;;;3.5;;
64018;SDS011;66942;52.138;5.216;2023-02-03T11:32:33;7.5;;;3.3;;
64018;SDS011;66942;52.138;5.216;2023-02-03T11:34:14;8.81;;;3.5;;
64018;SDS011;66942;52.138;5.216;2023-02-03T11:35:53;9.21;;;3.5;;
64018;SDS011;66942;52.138;5.216;2023-02-03T11:37:33;9.1;;;3.3;;
64018;SDS011;66942;52.138;5.216;2023-02-03T11:40:59;8.31;;;3.3;;
64018;SDS011;66942;52.138;5.216;2023-02-03T11:42:37;6.6;;;3.1;;
64018;SDS011;66942;52.138;5.216;2023-02-03T11:44:20;10.7;;;3.7;;
64018;SDS011;66942;52.138;5.216;2023-02-03T11:45:59;11.4;;;3.8;;
64018;SDS011;66942;52.138;5.216;2023-02-03T11:49:59;14.3;;;4.0;;
64018;SDS011;66942;52.138;5.216;2023-02-03T11:51:55;13.3;;;4.3;;
64018;SDS011;66942;52.138;5.216;2023-02-03T11:53:47;12.0;;;4.1;;
64018;SDS011;66942;52.138;5.216;2023-02-03T11:55:40;9.81;;;3.7;;
64018;SDS011;66942;52.138;5.216;2023-02-03T11:57:31;10.4;;;3.5;;
64018;SDS011;66942;52.138;5.216;2023-02-03T11:59:23;10.7;;;3.7;;
64018;SDS011;66942;52.138;5.216;2023-02-03T12:01:18;9.71;;;3.7;;
64018;SDS011;66942;52.138;5.216;2023-02-03T12:03:13;13.6;;;4.41;;
64018;SDS011;66942;52.138;5.216;2023-02-03T12:05:35;8.4;;;3.7;;
64018;SDS011;66942;52.138;5.216;2023-02-03T12:07:29;10.21;;;3.5;;
64018;SDS011;66942;52.138;5.216;2023-02-03T12:10:13;8.4;;;3.6;;
64018;SDS011;66942;52.138;5.216;2023-02-03T12:12:06;10.5;;;3.3;;
64018;SDS011;66942;52.138;5.216;2023-02-03T12:15:03;8.0;;;3.8;;
64018;SDS011;66942;52.138;5.216;2023-02-03T12:17:03;9.5;;;3.3;;
64018;SDS011;66942;52.138;5.216;2023-02-03T12:19:04;8.71;;;3.5;;
64018;SDS011;66942;52.138;5.216;2023-02-03T12:20:53;9.6;;;3.8;;
64018;SDS011;66942;52.138;5.216;2023-02-03T12:22:45;9.21;;;3.5;;
64018;SDS011;66942;52.138;5.216;2023-02-03T12:24:34;6.5;;;3.2;;
64018;SDS011;66942;52.138;5.216;2023-02-03T12:26:23;6.5;;;3.2;;
64018;SDS011;66942;52.138;5.216;2023-02-03T12:28:05;13.1;;;3.8;;
64018;SDS011;66942;52.138;5.216;2023-02-03T12:29:57;8.4;;;3.2;;
64018;SDS011;66942;52.138;5.216;2023-02-03T12:33:22;10.8;;;4.0;;
64018;SDS011;66942;52.138;5.216;2023-02-03T12:35:09;10.0;;;3.8;;
64018;SDS011;66942;52.138;5.216;2023-02-03T12:36:54;9.9;;;4.41;;
64018;SDS011;66942;52.138;5.216;2023-02-03T12:38:38;11.1;;;3.7;;
64018;SDS011;66942;52.138;5.216;2023-02-03T12:40:21;8.2;;;3.5;;
64018;SDS011;66942;52.138;5.216;2023-02-03T12:43:57;8.71;;;4.0;;
64018;SDS011;66942;52.138;5.216;2023-02-03T12:45:37;10.1;;;3.8;;
64018;SDS011;66942;52.138;5.216;2023-02-03T12:47:16;10.21;;;4.0;;
64018;SDS011;66942;52.138;5.216;2023-02-03T12:49:02;11.0;;;3.8;;
64018;SDS011;66942;52.138;5.216;2023-02-03T12:50:49;10.4;;;4.1;;
64018;SDS011;66942;52.138;5.216;2023-02-03T12:54:18;11.1;;;4.0;;